createdAt,value
2017-08-05T00:00:36.526Z,97.86
2017-08-05T00:01:17.065Z,98.33
2017-08-05T00:01:57.604Z,98.33
2017-08-05T00:02:38.126Z,98.14
2017-08-05T00:03:18.670Z,98.33
2017-08-05T00:03:59.192Z,98.62
2017-08-05T00:04:39.730Z,98.53
2017-08-05T00:05:20.268Z,98.43
2017-08-05T00:06:00.808Z,98.53
2017-08-05T00:06:41.347Z,98.53
2017-08-05T00:07:21.875Z,98.72
2017-08-05T00:08:02.399Z,99.2
2017-08-05T00:08:42.942Z,99.29
2017-08-05T00:09:23.476Z,99.1
2017-08-05T00:10:04.015Z,98.91
2017-08-05T00:10:44.541Z,99.29
2017-08-05T00:11:25.079Z,99.29
2017-08-05T00:12:05.617Z,99.39
2017-08-05T00:12:46.149Z,99.39
2017-08-05T00:13:26.686Z,99.01
2017-08-05T00:14:07.227Z,99.49
2017-08-05T00:14:47.758Z,99.77
2017-08-05T00:15:28.293Z,99.96
2017-08-05T00:16:08.834Z,99.77
2017-08-05T00:16:49.376Z,99.39
2017-08-05T00:17:29.906Z,99.68
2017-08-05T00:18:10.451Z,99.87
2017-08-05T00:18:50.988Z,99.99
2017-08-05T00:19:31.529Z,99.96
2017-08-05T00:20:12.072Z,99.96
2017-08-05T00:20:52.607Z,99.99
2017-08-05T00:21:33.134Z,99.99
2017-08-05T00:22:13.671Z,99.99
2017-08-05T00:22:54.203Z,99.99
2017-08-05T00:23:34.742Z,99.99
2017-08-05T00:24:15.284Z,99.99
2017-08-05T00:24:55.820Z,99.99
2017-08-05T00:25:36.365Z,99.99
2017-08-05T00:26:16.898Z,99.99
2017-08-05T00:26:57.434Z,99.99
2017-08-05T00:27:37.963Z,99.99
2017-08-05T00:28:18.499Z,99.99
2017-08-05T00:28:59.033Z,99.99
2017-08-05T00:29:39.561Z,99.99
2017-08-05T00:30:20.102Z,99.99
2017-08-05T00:31:00.636Z,99.99
2017-08-05T00:31:41.176Z,99.99
2017-08-05T00:32:21.712Z,99.99
2017-08-05T00:33:02.254Z,99.99
2017-08-05T00:33:42.788Z,99.99
2017-08-05T00:34:23.330Z,99.99
2017-08-05T00:35:03.873Z,99.99
2017-08-05T00:35:44.409Z,99.99
2017-08-05T00:36:24.955Z,99.99
2017-08-05T00:37:05.491Z,99.99
2017-08-05T00:37:46.030Z,99.99
2017-08-05T00:38:26.566Z,99.99
2017-08-05T00:39:07.101Z,99.99
2017-08-05T00:39:47.640Z,99.99
2017-08-05T00:40:28.169Z,99.99
2017-08-05T00:41:08.710Z,99.99
2017-08-05T00:41:49.242Z,99.99
2017-08-05T00:42:29.775Z,99.99
2017-08-05T00:43:10.314Z,99.99
2017-08-05T00:43:50.850Z,99.99
2017-08-05T00:44:31.387Z,99.99
2017-08-05T00:45:11.914Z,99.99
2017-08-05T00:45:52.448Z,99.99
2017-08-05T00:46:32.987Z,99.99
2017-08-05T00:47:13.526Z,99.99
2017-08-05T00:47:54.065Z,99.99
2017-08-05T00:48:34.605Z,99.99
2017-08-05T00:49:15.135Z,99.99
2017-08-05T00:49:55.668Z,99.99
2017-08-05T00:50:36.200Z,99.99
2017-08-05T00:51:16.738Z,99.99
2017-08-05T00:51:57.282Z,99.99
2017-08-05T00:52:37.820Z,99.99
2017-08-05T00:53:18.354Z,99.99
2017-08-05T00:53:58.893Z,99.99
2017-08-05T00:54:39.438Z,99.99
2017-08-05T00:55:19.972Z,99.99
2017-08-05T00:56:00.516Z,99.99
2017-08-05T00:56:41.057Z,99.99
2017-08-05T00:57:21.589Z,99.99
2017-08-05T00:58:02.125Z,99.99
2017-08-05T00:58:42.663Z,99.99
2017-08-05T00:59:23.202Z,99.99
2017-08-05T01:00:03.741Z,99.99
2017-08-05T01:00:44.279Z,99.99
2017-08-05T01:01:24.810Z,99.99
2017-08-05T01:02:05.348Z,99.99
2017-08-05T01:02:45.880Z,99.99
2017-08-05T01:03:26.421Z,99.99
2017-08-05T01:04:06.956Z,99.99
2017-08-05T01:04:47.484Z,99.99
2017-08-05T01:05:28.012Z,99.99
2017-08-05T01:06:08.547Z,99.99
2017-08-05T01:06:49.082Z,99.99
2017-08-05T01:07:29.622Z,99.99
2017-08-05T01:08:10.147Z,99.99
2017-08-05T01:08:50.679Z,99.99
2017-08-05T01:09:31.217Z,99.99
2017-08-05T01:10:11.754Z,99.99
2017-08-05T01:10:52.282Z,99.99
2017-08-05T01:11:32.817Z,99.99
2017-08-05T01:12:13.360Z,99.99
2017-08-05T01:12:53.898Z,99.99
2017-08-05T01:13:34.435Z,99.99
2017-08-05T01:14:14.970Z,99.99
2017-08-05T01:14:55.524Z,99.99
2017-08-05T01:15:36.041Z,99.99
2017-08-05T01:16:16.578Z,99.99
2017-08-05T01:16:57.115Z,99.99
2017-08-05T01:17:37.654Z,99.99
2017-08-05T01:18:18.198Z,99.99
2017-08-05T01:18:58.728Z,99.99
2017-08-05T01:19:39.267Z,99.99
2017-08-05T01:20:19.804Z,99.99
2017-08-05T01:21:00.343Z,99.99
2017-08-05T01:21:40.884Z,99.99
2017-08-05T01:22:21.424Z,99.99
2017-08-05T01:23:01.962Z,99.99
2017-08-05T01:23:42.505Z,99.99
2017-08-05T01:24:23.039Z,99.99
2017-08-05T01:25:03.573Z,99.99
2017-08-05T01:25:44.115Z,99.99
2017-08-05T01:26:24.652Z,99.99
2017-08-05T01:27:05.191Z,99.99
2017-08-05T01:27:45.739Z,99.99
2017-08-05T01:28:26.265Z,99.99
2017-08-05T01:29:06.795Z,99.99
2017-08-05T01:29:47.314Z,99.99
2017-08-05T01:30:27.842Z,99.99
2017-08-05T01:31:08.375Z,99.99
2017-08-05T01:31:48.906Z,99.99
2017-08-05T01:32:29.438Z,99.99
2017-08-05T01:33:09.971Z,99.99
2017-08-05T01:33:50.515Z,99.99
2017-08-05T01:34:31.055Z,99.99
2017-08-05T01:35:11.593Z,99.99
2017-08-05T01:35:52.121Z,99.99
2017-08-05T01:36:32.647Z,99.99
2017-08-05T01:37:13.175Z,99.99
2017-08-05T01:37:53.703Z,99.99
2017-08-05T01:38:34.246Z,99.99
2017-08-05T01:39:14.785Z,99.99
2017-08-05T01:39:55.325Z,99.99
2017-08-05T01:40:35.863Z,99.99
2017-08-05T01:41:16.397Z,99.99
2017-08-05T01:41:56.945Z,99.99
2017-08-05T01:42:37.473Z,99.99
2017-08-05T01:43:18.015Z,99.99
2017-08-05T01:43:58.554Z,99.99
2017-08-05T01:44:39.091Z,99.99
2017-08-05T01:45:19.632Z,99.99
2017-08-05T01:46:00.164Z,99.99
2017-08-05T01:46:40.697Z,99.99
2017-08-05T01:47:21.236Z,99.99
2017-08-05T01:48:01.782Z,99.99
2017-08-05T01:48:42.320Z,99.99
2017-08-05T01:49:22.856Z,99.99
2017-08-05T01:50:03.393Z,99.99
2017-08-05T01:50:43.929Z,99.99
2017-08-05T01:51:24.465Z,99.99
2017-08-05T01:52:05.004Z,99.99
2017-08-05T01:52:45.534Z,99.99
2017-08-05T01:53:26.067Z,99.99
2017-08-05T01:54:06.609Z,99.99
2017-08-05T01:54:47.139Z,99.99
2017-08-05T01:55:27.661Z,99.99
2017-08-05T01:56:08.195Z,99.99
2017-08-05T01:56:48.735Z,99.99
2017-08-05T01:57:29.275Z,99.99
2017-08-05T01:58:09.799Z,99.99
2017-08-05T01:58:50.342Z,99.99
2017-08-05T01:59:30.878Z,99.99
2017-08-05T02:00:11.411Z,99.99
2017-08-05T02:00:51.939Z,99.99
2017-08-05T02:01:32.467Z,99.99
2017-08-05T02:02:13.003Z,99.99
2017-08-05T02:02:53.542Z,99.99
2017-08-05T02:03:34.066Z,99.99
2017-08-05T02:04:14.591Z,99.99
2017-08-05T02:04:55.130Z,99.99
2017-08-05T02:05:35.669Z,99.99
2017-08-05T02:06:16.209Z,99.99
2017-08-05T02:06:56.749Z,99.99
2017-08-05T02:07:37.284Z,99.99
2017-08-05T02:08:17.826Z,99.99
2017-08-05T02:08:58.365Z,99.99
2017-08-05T02:09:38.895Z,99.99
2017-08-05T02:10:19.432Z,99.99
2017-08-05T02:10:59.967Z,99.99
2017-08-05T02:11:40.496Z,99.99
2017-08-05T02:12:21.038Z,99.99
2017-08-05T02:13:01.579Z,99.99
2017-08-05T02:13:42.103Z,99.99
2017-08-05T02:14:22.637Z,99.99
2017-08-05T02:15:03.178Z,99.99
2017-08-05T02:15:43.705Z,99.99
2017-08-05T02:16:24.233Z,99.99
2017-08-05T02:17:04.753Z,99.99
2017-08-05T02:17:45.304Z,99.99
2017-08-05T02:18:25.841Z,99.99
2017-08-05T02:19:06.380Z,99.99
2017-08-05T02:19:46.919Z,99.99
2017-08-05T02:20:27.452Z,99.99
2017-08-05T02:21:07.981Z,99.99
2017-08-05T02:21:48.531Z,99.99
2017-08-05T02:22:29.044Z,99.99
2017-08-05T02:23:09.585Z,99.99
2017-08-05T02:23:50.124Z,99.99
2017-08-05T02:24:30.671Z,99.99
2017-08-05T02:25:11.203Z,99.99
2017-08-05T02:25:51.751Z,99.99
2017-08-05T02:26:32.293Z,99.99
2017-08-05T02:27:12.834Z,99.99
2017-08-05T02:27:53.364Z,99.99
2017-08-05T02:28:33.893Z,99.99
2017-08-05T02:29:14.424Z,99.99
2017-08-05T02:29:54.963Z,99.99
2017-08-05T02:30:35.493Z,99.99
2017-08-05T02:31:16.023Z,99.99
2017-08-05T02:31:56.561Z,99.99
2017-08-05T02:32:37.100Z,99.99
2017-08-05T02:33:17.632Z,99.99
2017-08-05T02:33:58.163Z,99.99
2017-08-05T02:34:38.690Z,99.99
2017-08-05T02:35:19.229Z,99.99
2017-08-05T02:35:59.751Z,99.99
2017-08-05T02:36:40.315Z,99.99
2017-08-05T02:37:20.857Z,99.99
2017-08-05T02:38:01.388Z,99.99
2017-08-05T02:38:41.931Z,99.99
2017-08-05T02:39:22.468Z,99.99
2017-08-05T02:40:03.011Z,99.99
2017-08-05T02:40:43.544Z,99.99
2017-08-05T02:41:24.079Z,99.99
2017-08-05T02:42:04.621Z,99.99
2017-08-05T02:42:45.167Z,99.99
2017-08-05T02:43:25.703Z,99.99
2017-08-05T02:44:06.240Z,99.99
2017-08-05T02:44:46.784Z,99.99
2017-08-05T02:45:27.322Z,99.99
2017-08-05T02:46:07.853Z,99.99
2017-08-05T02:46:48.394Z,99.99
2017-08-05T02:47:28.928Z,99.99
2017-08-05T02:48:09.465Z,99.99
2017-08-05T02:48:50.011Z,99.99
2017-08-05T02:49:30.541Z,99.99
2017-08-05T02:50:11.075Z,99.99
2017-08-05T02:50:51.610Z,99.99
2017-08-05T02:51:32.137Z,99.99
2017-08-05T02:52:12.672Z,99.99
2017-08-05T02:52:53.208Z,99.99
2017-08-05T02:53:33.745Z,99.99
2017-08-05T02:54:14.281Z,99.99
2017-08-05T02:54:54.821Z,99.99
2017-08-05T02:55:35.365Z,99.99
2017-08-05T02:56:15.905Z,99.99
2017-08-05T02:56:56.449Z,99.99
2017-08-05T02:57:36.986Z,99.99
2017-08-05T02:58:17.528Z,99.99
2017-08-05T02:58:58.066Z,99.99
2017-08-05T02:59:38.606Z,99.99
2017-08-05T03:00:19.140Z,99.99
2017-08-05T03:00:59.681Z,99.99
2017-08-05T03:01:40.221Z,99.99
2017-08-05T03:02:20.764Z,99.99
2017-08-05T03:03:01.311Z,99.99
2017-08-05T03:03:41.859Z,99.99
2017-08-05T03:04:22.392Z,99.99
2017-08-05T03:05:02.933Z,99.99
2017-08-05T03:05:43.473Z,99.99
2017-08-05T03:06:24.001Z,99.99
2017-08-05T03:07:04.544Z,99.99
2017-08-05T03:07:45.081Z,99.99
2017-08-05T03:08:25.721Z,99.99
2017-08-05T03:09:06.248Z,99.99
2017-08-05T03:09:46.786Z,99.99
2017-08-05T03:10:27.320Z,99.99
2017-08-05T03:11:07.862Z,99.99
2017-08-05T03:11:48.400Z,99.99
2017-08-05T03:12:28.931Z,99.99
2017-08-05T03:13:09.472Z,99.99
2017-08-05T03:13:50.004Z,99.99
2017-08-05T03:14:30.540Z,99.99
2017-08-05T03:15:11.082Z,99.99
2017-08-05T03:15:51.628Z,99.99
2017-08-05T03:16:32.158Z,99.99
2017-08-05T03:17:12.686Z,99.99
2017-08-05T03:17:53.241Z,99.99
2017-08-05T03:18:33.764Z,99.99
2017-08-05T03:19:14.306Z,96.51
2017-08-05T03:19:54.844Z,99.99
2017-08-05T03:20:35.385Z,99.99
2017-08-05T03:21:15.921Z,99.99
2017-08-05T03:21:56.452Z,99.99
2017-08-05T03:22:36.981Z,99.99
2017-08-05T03:23:17.517Z,99.99
2017-08-05T03:23:58.039Z,99.99
2017-08-05T03:24:38.575Z,99.99
2017-08-05T03:25:19.115Z,99.99
2017-08-05T03:25:59.654Z,99.99
2017-08-05T03:26:40.188Z,99.99
2017-08-05T03:27:20.733Z,99.99
2017-08-05T03:28:01.280Z,99.99
2017-08-05T03:28:41.815Z,99.99
2017-08-05T03:29:22.351Z,99.99
2017-08-05T03:30:02.897Z,99.99
2017-08-05T03:30:43.433Z,99.99
2017-08-05T03:31:23.984Z,99.99
2017-08-05T03:32:04.506Z,99.99
2017-08-05T03:32:45.042Z,99.99
2017-08-05T03:33:25.578Z,99.99
2017-08-05T03:34:06.120Z,99.99
2017-08-05T03:34:46.657Z,99.99
2017-08-05T03:35:27.197Z,99.99
2017-08-05T03:36:07.724Z,99.99
2017-08-05T03:36:48.248Z,99.99
2017-08-05T03:37:28.784Z,99.99
2017-08-05T03:38:09.320Z,99.99
2017-08-05T03:38:49.859Z,99.99
2017-08-05T03:39:30.385Z,99.99
2017-08-05T03:40:10.920Z,99.99
2017-08-05T03:40:51.466Z,99.99
2017-08-05T03:41:32.011Z,99.99
2017-08-05T03:42:12.548Z,99.99
2017-08-05T03:42:53.086Z,99.99
2017-08-05T03:43:33.626Z,99.99
2017-08-05T03:44:14.155Z,99.99
2017-08-05T03:44:54.696Z,99.99
2017-08-05T03:45:35.226Z,99.99
2017-08-05T03:46:15.751Z,99.99
2017-08-05T03:46:56.283Z,99.99
2017-08-05T03:47:36.818Z,99.99
2017-08-05T03:48:17.357Z,99.99
2017-08-05T03:48:57.895Z,99.99
2017-08-05T03:49:38.438Z,99.99
2017-08-05T03:50:18.976Z,99.99
2017-08-05T03:50:59.514Z,99.99
2017-08-05T03:51:40.058Z,99.99
2017-08-05T03:52:20.595Z,99.99
2017-08-05T03:53:01.134Z,99.99
2017-08-05T03:53:41.680Z,99.99
2017-08-05T03:54:22.214Z,99.99
2017-08-05T03:55:02.751Z,99.99
2017-08-05T03:55:43.291Z,99.99
2017-08-05T03:56:23.827Z,99.99
2017-08-05T03:57:04.359Z,99.99
2017-08-05T03:57:44.896Z,99.99
2017-08-05T03:58:25.439Z,99.99
2017-08-05T03:59:05.983Z,99.99
2017-08-05T03:59:46.518Z,99.99
2017-08-05T04:00:27.061Z,99.99
2017-08-05T04:01:07.589Z,99.99
2017-08-05T04:01:48.130Z,99.99
2017-08-05T04:02:28.680Z,99.99
2017-08-05T04:03:09.217Z,99.99
2017-08-05T04:03:49.754Z,99.99
2017-08-05T04:04:30.291Z,99.99
2017-08-05T04:05:10.832Z,99.99
2017-08-05T04:05:51.373Z,99.99
2017-08-05T04:06:31.916Z,99.99
2017-08-05T04:07:12.455Z,99.99
2017-08-05T04:07:52.992Z,99.99
2017-08-05T04:08:33.522Z,99.99
2017-08-05T04:09:14.058Z,99.99
2017-08-05T04:09:54.602Z,99.99
2017-08-05T04:10:35.138Z,99.99
2017-08-05T04:11:15.689Z,99.99
2017-08-05T04:11:56.227Z,99.99
2017-08-05T04:12:36.760Z,99.99
2017-08-05T04:13:17.298Z,99.99
2017-08-05T04:13:57.829Z,99.99
2017-08-05T04:14:38.363Z,99.99
2017-08-05T04:15:18.908Z,99.99
2017-08-05T04:15:59.449Z,99.99
2017-08-05T04:16:39.989Z,99.99
2017-08-05T04:17:20.528Z,99.99
2017-08-05T04:18:01.070Z,99.99
2017-08-05T04:18:41.612Z,99.99
2017-08-05T04:19:22.135Z,99.99
2017-08-05T04:20:02.675Z,99.99
2017-08-05T04:20:43.207Z,99.99
2017-08-05T04:21:23.745Z,99.99
2017-08-05T04:22:04.287Z,99.99
2017-08-05T04:22:44.826Z,99.99
2017-08-05T04:23:25.353Z,99.99
2017-08-05T04:24:05.886Z,99.99
2017-08-05T04:24:46.416Z,99.99
2017-08-05T04:25:26.952Z,99.99
2017-08-05T04:26:07.493Z,99.99
2017-08-05T04:26:48.048Z,99.99
2017-08-05T04:27:28.569Z,99.99
2017-08-05T04:28:09.106Z,99.99
2017-08-05T04:28:49.645Z,99.99
2017-08-05T04:29:30.169Z,99.99
2017-08-05T04:30:10.708Z,99.99
2017-08-05T04:30:51.251Z,99.99
2017-08-05T04:31:31.781Z,99.99
2017-08-05T04:32:12.324Z,99.99
2017-08-05T04:32:52.864Z,99.99
2017-08-05T04:33:33.398Z,99.99
2017-08-05T04:34:13.945Z,99.99
2017-08-05T04:34:54.482Z,99.99
2017-08-05T04:35:35.023Z,99.99
2017-08-05T04:36:15.563Z,99.99
2017-08-05T04:36:56.101Z,99.99
2017-08-05T04:37:36.643Z,99.99
2017-08-05T04:38:17.151Z,99.99
2017-08-05T04:38:57.698Z,99.99
2017-08-05T04:39:38.233Z,99.99
2017-08-05T04:40:18.765Z,99.99
2017-08-05T04:40:59.297Z,99.99
2017-08-05T04:41:39.840Z,99.99
2017-08-05T04:42:20.384Z,99.99
2017-08-05T04:43:00.912Z,99.99
2017-08-05T04:43:41.453Z,99.99
2017-08-05T04:44:21.984Z,99.99
2017-08-05T04:45:02.519Z,99.99
2017-08-05T04:45:43.067Z,99.99
2017-08-05T04:46:23.601Z,99.99
2017-08-05T04:47:04.139Z,99.99
2017-08-05T04:47:44.671Z,99.99
2017-08-05T04:48:25.206Z,99.99
2017-08-05T04:49:05.734Z,99.99
2017-08-05T04:49:46.257Z,99.99
2017-08-05T04:50:26.793Z,99.99
2017-08-05T04:51:07.330Z,99.99
2017-08-05T04:51:47.860Z,99.99
2017-08-05T04:52:28.402Z,99.99
2017-08-05T04:53:08.939Z,99.99
2017-08-05T04:53:49.484Z,99.99
2017-08-05T04:54:30.026Z,99.99
2017-08-05T04:55:10.568Z,99.99
2017-08-05T04:55:51.102Z,99.99
2017-08-05T04:56:31.643Z,99.99
2017-08-05T04:57:12.182Z,99.99
2017-08-05T04:57:52.717Z,99.99
2017-08-05T04:58:33.269Z,99.99
2017-08-05T04:59:13.815Z,99.99
2017-08-05T04:59:54.350Z,99.99
2017-08-05T05:00:34.894Z,99.99
2017-08-05T05:01:15.432Z,99.99
2017-08-05T05:01:55.973Z,99.99
2017-08-05T05:02:36.501Z,99.99
2017-08-05T05:03:17.038Z,99.99
2017-08-05T05:03:57.558Z,99.99
2017-08-05T05:04:38.097Z,99.99
2017-08-05T05:05:18.630Z,99.99
2017-08-05T05:05:59.164Z,99.99
2017-08-05T05:06:39.705Z,99.99
2017-08-05T05:07:20.239Z,99.99
2017-08-05T05:08:00.766Z,99.99
2017-08-05T05:08:41.302Z,99.99
2017-08-05T05:09:21.827Z,99.99
2017-08-05T05:10:02.365Z,99.99
2017-08-05T05:10:42.904Z,99.99
2017-08-05T05:11:23.441Z,99.99
2017-08-05T05:12:03.978Z,99.99
2017-08-05T05:12:44.514Z,99.99
2017-08-05T05:13:25.045Z,99.99
2017-08-05T05:14:05.580Z,99.99
2017-08-05T05:14:46.119Z,99.99
2017-08-05T05:15:26.648Z,99.99
2017-08-05T05:16:07.168Z,99.99
2017-08-05T05:16:47.709Z,99.99
2017-08-05T05:17:28.249Z,99.99
2017-08-05T05:18:08.788Z,99.99
2017-08-05T05:18:49.327Z,99.99
2017-08-05T05:19:29.852Z,99.99
2017-08-05T05:20:10.385Z,99.99
2017-08-05T05:20:50.918Z,99.99
2017-08-05T05:21:31.447Z,99.99
2017-08-05T05:22:11.981Z,99.99
2017-08-05T05:22:52.519Z,99.99
2017-08-05T05:23:33.059Z,99.99
2017-08-05T05:24:13.598Z,99.99
2017-08-05T05:24:54.125Z,99.99
2017-08-05T05:25:34.665Z,99.99
2017-08-05T05:26:15.215Z,99.99
2017-08-05T05:26:55.754Z,99.99
2017-08-05T05:27:36.282Z,99.99
2017-08-05T05:28:16.817Z,99.99
2017-08-05T05:28:57.352Z,99.99
2017-08-05T05:29:37.888Z,99.99
2017-08-05T05:30:18.422Z,99.99
2017-08-05T05:30:58.954Z,99.99
2017-08-05T05:31:39.495Z,99.99
2017-08-05T05:32:20.040Z,99.99
2017-08-05T05:33:00.568Z,99.99
2017-08-05T05:33:41.110Z,99.99
2017-08-05T05:34:21.644Z,99.99
2017-08-05T05:35:02.172Z,99.99
2017-08-05T05:35:42.707Z,99.99
2017-08-05T05:36:23.250Z,99.99
2017-08-05T05:37:03.773Z,99.99
2017-08-05T05:37:44.303Z,99.99
2017-08-05T05:38:24.845Z,99.99
2017-08-05T05:39:05.386Z,99.99
2017-08-05T05:39:45.927Z,99.99
2017-08-05T05:40:26.476Z,99.99
2017-08-05T05:41:07.006Z,99.99
2017-08-05T05:41:47.543Z,99.99
2017-08-05T05:42:28.083Z,99.99
2017-08-05T05:43:08.620Z,99.99
2017-08-05T05:43:49.157Z,99.99
2017-08-05T05:44:29.694Z,99.99
2017-08-05T05:45:10.228Z,99.99
2017-08-05T05:45:50.768Z,99.99
2017-08-05T05:46:31.309Z,99.99
2017-08-05T05:47:11.844Z,99.99
2017-08-05T05:47:52.374Z,99.99
2017-08-05T05:48:32.908Z,99.99
2017-08-05T05:49:13.441Z,99.99
2017-08-05T05:49:53.973Z,99.99
2017-08-05T05:50:34.503Z,99.99
2017-08-05T05:51:15.031Z,99.99
2017-08-05T05:51:55.558Z,99.99
2017-08-05T05:52:36.107Z,99.99
2017-08-05T05:53:16.640Z,99.99
2017-08-05T05:53:57.175Z,99.99
2017-08-05T05:54:37.711Z,99.99
2017-08-05T05:55:18.252Z,99.99
2017-08-05T05:55:58.782Z,99.99
2017-08-05T05:56:39.318Z,99.99
2017-08-05T05:57:19.861Z,99.99
2017-08-05T05:58:00.392Z,99.99
2017-08-05T05:58:40.927Z,99.99
2017-08-05T05:59:21.472Z,99.99
2017-08-05T06:00:02.006Z,99.99
2017-08-05T06:00:42.537Z,99.99
2017-08-05T06:01:23.075Z,99.99
2017-08-05T06:02:03.608Z,99.99
2017-08-05T06:02:44.136Z,99.99
2017-08-05T06:03:24.672Z,99.99
2017-08-05T06:04:05.218Z,99.99
2017-08-05T06:04:45.761Z,99.99
2017-08-05T06:05:26.291Z,99.99
2017-08-05T06:06:06.825Z,99.99
2017-08-05T06:06:47.354Z,99.99
2017-08-05T06:07:27.893Z,99.99
2017-08-05T06:08:08.437Z,99.99
2017-08-05T06:08:48.981Z,99.99
2017-08-05T06:09:29.511Z,99.99
2017-08-05T06:10:10.042Z,99.99
2017-08-05T06:10:50.575Z,99.99
2017-08-05T06:11:31.112Z,99.99
2017-08-05T06:12:11.653Z,99.99
2017-08-05T06:12:52.194Z,99.99
2017-08-05T06:13:32.733Z,99.99
2017-08-05T06:14:13.275Z,99.99
2017-08-05T06:14:53.811Z,99.99
2017-08-05T06:15:34.351Z,99.99
2017-08-05T06:16:14.893Z,99.99
2017-08-05T06:16:55.434Z,99.99
2017-08-05T06:17:35.970Z,99.99
2017-08-05T06:18:16.509Z,99.99
2017-08-05T06:18:57.053Z,99.99
2017-08-05T06:19:37.600Z,99.99
2017-08-05T06:20:18.140Z,99.99
2017-08-05T06:20:58.681Z,99.99
2017-08-05T06:21:39.219Z,99.99
2017-08-05T06:22:19.757Z,99.99
2017-08-05T06:23:00.290Z,99.99
2017-08-05T06:23:40.834Z,99.99
2017-08-05T06:24:21.373Z,99.99
2017-08-05T06:25:01.914Z,99.99
2017-08-05T06:25:42.451Z,99.99
2017-08-05T06:26:22.993Z,99.99
2017-08-05T06:27:03.530Z,99.99
2017-08-05T06:27:44.071Z,99.99
2017-08-05T06:28:24.613Z,99.99
2017-08-05T06:29:05.148Z,99.99
2017-08-05T06:29:45.689Z,99.99
2017-08-05T06:30:26.220Z,99.99
2017-08-05T06:31:06.757Z,99.99
2017-08-05T06:31:47.298Z,99.99
2017-08-05T06:32:27.836Z,99.99
2017-08-05T06:33:08.369Z,99.99
2017-08-05T06:33:48.909Z,99.99
2017-08-05T06:34:29.451Z,99.99
2017-08-05T06:35:09.987Z,99.99
2017-08-05T06:35:50.526Z,99.99
2017-08-05T06:36:31.068Z,99.99
2017-08-05T06:37:11.610Z,99.99
2017-08-05T06:37:52.147Z,99.99
2017-08-05T06:38:32.694Z,99.99
2017-08-05T06:39:13.224Z,99.99
2017-08-05T06:39:53.767Z,99.99
2017-08-05T06:40:34.303Z,99.99
2017-08-05T06:41:14.845Z,99.99
2017-08-05T06:41:55.386Z,99.99
2017-08-05T06:42:35.924Z,99.99
2017-08-05T06:43:16.471Z,99.99
2017-08-05T06:43:57.012Z,99.99
2017-08-05T06:44:37.556Z,99.99
2017-08-05T06:45:18.091Z,99.99
2017-08-05T06:45:58.629Z,99.99
2017-08-05T06:46:39.172Z,99.99
2017-08-05T06:47:19.710Z,99.99
2017-08-05T06:48:00.236Z,99.99
2017-08-05T06:48:40.781Z,99.99
2017-08-05T06:49:21.324Z,99.99
2017-08-05T06:50:01.850Z,99.99
2017-08-05T06:50:42.388Z,99.99
2017-08-05T06:51:22.927Z,99.99
2017-08-05T06:52:03.465Z,99.99
2017-08-05T06:52:43.994Z,99.99
2017-08-05T06:53:24.535Z,99.99
2017-08-05T06:54:05.071Z,99.99
2017-08-05T06:54:45.613Z,99.99
2017-08-05T06:55:26.145Z,99.99
2017-08-05T06:56:06.675Z,99.99
2017-08-05T06:56:47.215Z,99.99
2017-08-05T06:57:27.745Z,99.99
2017-08-05T06:58:08.297Z,99.99
2017-08-05T06:58:48.838Z,99.99
2017-08-05T06:59:29.382Z,99.99
2017-08-05T07:00:09.918Z,99.99
2017-08-05T07:00:50.460Z,99.99
2017-08-05T07:01:31.001Z,99.99
2017-08-05T07:02:11.545Z,99.99
2017-08-05T07:02:52.084Z,99.99
2017-08-05T07:03:32.623Z,99.99
2017-08-05T07:04:13.163Z,99.99
2017-08-05T07:04:53.703Z,99.99
2017-08-05T07:05:34.244Z,99.99
2017-08-05T07:06:14.780Z,99.99
2017-08-05T07:06:55.325Z,99.99
2017-08-05T07:07:35.870Z,99.99
2017-08-05T07:08:16.406Z,99.99
2017-08-05T07:08:56.952Z,99.99
2017-08-05T07:09:37.495Z,99.99
2017-08-05T07:10:18.019Z,99.99
2017-08-05T07:10:58.557Z,99.99
2017-08-05T07:11:39.098Z,99.99
2017-08-05T07:12:19.637Z,99.99
2017-08-05T07:13:00.166Z,99.99
2017-08-05T07:13:40.706Z,99.99
2017-08-05T07:14:21.248Z,99.99
2017-08-05T07:15:01.784Z,99.99
2017-08-05T07:15:42.320Z,99.99
2017-08-05T07:16:22.853Z,99.99
2017-08-05T07:17:03.407Z,99.99
2017-08-05T07:17:43.928Z,99.99
2017-08-05T07:18:24.469Z,99.99
2017-08-05T07:19:05.009Z,99.99
2017-08-05T07:19:45.554Z,99.99
2017-08-05T07:20:26.088Z,99.99
2017-08-05T07:21:06.628Z,99.99
2017-08-05T07:21:47.169Z,99.99
2017-08-05T07:22:27.712Z,99.99
2017-08-05T07:23:08.258Z,99.99
2017-08-05T07:23:48.800Z,99.99
2017-08-05T07:24:29.342Z,99.99
2017-08-05T07:25:09.878Z,99.99
2017-08-05T07:25:50.416Z,99.99
2017-08-05T07:26:30.960Z,99.99
2017-08-05T07:27:11.497Z,99.99
2017-08-05T07:27:52.035Z,99.99
2017-08-05T07:28:32.578Z,99.99
2017-08-05T07:29:13.116Z,99.99
2017-08-05T07:29:53.644Z,99.99
2017-08-05T07:30:34.193Z,99.99
2017-08-05T07:31:14.730Z,99.99
2017-08-05T07:31:55.261Z,99.99
2017-08-05T07:32:35.789Z,99.99
2017-08-05T07:33:16.342Z,99.99
2017-08-05T07:33:56.856Z,99.99
2017-08-05T07:34:37.401Z,99.99
2017-08-05T07:35:17.933Z,99.99
2017-08-05T07:35:58.461Z,99.99
2017-08-05T07:36:38.989Z,99.99
2017-08-05T07:37:19.532Z,99.99
2017-08-05T07:38:00.067Z,99.99
2017-08-05T07:38:40.610Z,99.99
2017-08-05T07:39:21.148Z,99.99
2017-08-05T07:40:01.683Z,99.99
2017-08-05T07:40:42.220Z,99.99
2017-08-05T07:41:22.756Z,99.99
2017-08-05T07:42:03.294Z,99.99
2017-08-05T07:42:43.836Z,99.99
2017-08-05T07:43:24.376Z,99.99
2017-08-05T07:44:04.918Z,99.99
2017-08-05T07:44:45.456Z,99.99
2017-08-05T07:45:25.981Z,99.99
2017-08-05T07:46:06.513Z,99.99
2017-08-05T07:46:47.050Z,99.99
2017-08-05T07:47:27.580Z,99.99
2017-08-05T07:48:08.119Z,99.99
2017-08-05T07:48:48.663Z,99.99
2017-08-05T07:49:29.214Z,99.99
2017-08-05T07:50:09.736Z,99.99
2017-08-05T07:50:50.275Z,99.99
2017-08-05T07:51:30.801Z,99.99
2017-08-05T07:52:11.343Z,99.99
2017-08-05T07:52:51.896Z,99.99
2017-08-05T07:53:32.448Z,99.99
2017-08-05T07:54:12.978Z,99.99
2017-08-05T07:54:53.521Z,99.99
2017-08-05T07:55:34.063Z,99.99
2017-08-05T07:56:14.592Z,99.99
2017-08-05T07:56:55.128Z,99.99
2017-08-05T07:57:35.673Z,99.99
2017-08-05T07:58:16.212Z,99.99
2017-08-05T07:58:56.753Z,99.99
2017-08-05T07:59:37.293Z,99.99
2017-08-05T08:00:17.833Z,99.99
2017-08-05T08:00:58.376Z,99.99
2017-08-05T08:01:38.922Z,99.99
2017-08-05T08:02:19.457Z,99.99
2017-08-05T08:02:59.990Z,99.99
2017-08-05T08:03:40.527Z,99.99
2017-08-05T08:04:21.061Z,99.99
2017-08-05T08:05:01.605Z,99.99
2017-08-05T08:05:42.146Z,99.99
2017-08-05T08:06:22.675Z,99.99
2017-08-05T08:07:03.213Z,99.99
2017-08-05T08:07:43.746Z,99.99
2017-08-05T08:08:24.281Z,99.99
2017-08-05T08:09:04.820Z,99.99
2017-08-05T08:09:45.363Z,99.99
2017-08-05T08:10:25.896Z,99.99
2017-08-05T08:11:06.441Z,99.99
2017-08-05T08:11:46.984Z,99.99
2017-08-05T08:12:27.520Z,99.99
2017-08-05T08:13:08.059Z,99.99
2017-08-05T08:13:48.600Z,99.99
2017-08-05T08:14:29.150Z,99.99
2017-08-05T08:15:09.677Z,99.99
2017-08-05T08:15:50.216Z,99.99
2017-08-05T08:16:30.755Z,99.99
2017-08-05T08:17:11.296Z,99.99
2017-08-05T08:17:51.834Z,99.99
2017-08-05T08:18:32.376Z,99.99
2017-08-05T08:19:12.913Z,99.99
2017-08-05T08:19:53.445Z,99.99
2017-08-05T08:20:33.977Z,99.99
2017-08-05T08:21:14.515Z,99.99
2017-08-05T08:21:55.058Z,99.99
2017-08-05T08:22:35.599Z,99.99
2017-08-05T08:23:16.140Z,99.99
2017-08-05T08:23:56.679Z,99.99
2017-08-05T08:24:37.218Z,99.99
2017-08-05T08:25:17.758Z,99.99
2017-08-05T08:25:58.300Z,99.99
2017-08-05T08:26:38.835Z,99.99
2017-08-05T08:27:19.380Z,99.99
2017-08-05T08:27:59.914Z,99.99
2017-08-05T08:28:40.457Z,99.99
2017-08-05T08:29:20.993Z,99.99
2017-08-05T08:30:01.532Z,99.99
2017-08-05T08:30:42.071Z,99.99
2017-08-05T08:31:22.605Z,99.99
2017-08-05T08:32:03.136Z,99.99
2017-08-05T08:32:43.673Z,99.99
2017-08-05T08:33:24.222Z,99.99
2017-08-05T08:34:04.770Z,99.99
2017-08-05T08:34:45.320Z,99.99
2017-08-05T08:35:25.875Z,99.99
2017-08-05T08:36:06.400Z,99.99
2017-08-05T08:36:46.930Z,99.99
2017-08-05T08:37:27.473Z,99.99
2017-08-05T08:38:08.009Z,99.99
2017-08-05T08:38:48.565Z,99.99
2017-08-05T08:39:29.088Z,99.99
2017-08-05T08:40:09.632Z,99.99
2017-08-05T08:40:50.181Z,99.99
2017-08-05T08:41:30.720Z,99.99
2017-08-05T08:42:11.260Z,99.99